sensor_id;sensor_type;location;lat;lon;timestamp;P1;durP1;ratioP1;P2;durP2;ratioP2
72920;SDS011;61064;51.654;5.476;2023-06-05T00:02:05;10.40;;;2.30;;
72920;SDS011;61064;51.654;5.476;2023-06-05T00:04:30;7.27;;;2.30;;
72920;SDS011;61064;51.654;5.476;2023-06-05T00:06:55;7.78;;;2.10;;
72920;SDS011;61064;51.654;5.476;2023-06-05T00:09:25;7.03;;;1.70;;
72920;SDS011;61064;51.654;5.476;2023-06-05T00:11:51;6.30;;;2.05;;
72920;SDS011;61064;51.654;5.476;2023-06-05T00:14:16;8.33;;;2.13;;
72920;SDS011;61064;51.654;5.476;2023-06-05T00:16:42;7.90;;;2.42;;
72920;SDS011;61064;51.654;5.476;2023-06-05T00:19:07;5.63;;;1.97;;
72920;SDS011;61064;51.654;5.476;2023-06-05T00:21:33;8.00;;;2.00;;
72920;SDS011;61064;51.654;5.476;2023-06-05T00:23:58;6.38;;;1.90;;
72920;SDS011;61064;51.654;5.476;2023-06-05T00:26:24;7.97;;;2.10;;
72920;SDS011;61064;51.654;5.476;2023-06-05T00:28:49;6.57;;;2.70;;
72920;SDS011;61064;51.654;5.476;2023-06-05T00:31:15;8.37;;;2.40;;
72920;SDS011;61064;51.654;5.476;2023-06-05T00:33:42;7.13;;;2.20;;
72920;SDS011;61064;51.654;5.476;2023-06-05T00:36:07;6.27;;;2.23;;
72920;SDS011;61064;51.654;5.476;2023-06-05T00:38:33;7.25;;;2.20;;
72920;SDS011;61064;51.654;5.476;2023-06-05T00:40:58;6.90;;;2.30;;
72920;SDS011;61064;51.654;5.476;2023-06-05T00:43:23;7.20;;;2.67;;
72920;SDS011;61064;51.654;5.476;2023-06-05T00:45:50;8.17;;;2.83;;
72920;SDS011;61064;51.654;5.476;2023-06-05T00:48:23;7.47;;;2.53;;
72920;SDS011;61064;51.654;5.476;2023-06-05T00:50:48;7.97;;;2.67;;
72920;SDS011;61064;51.654;5.476;2023-06-05T00:53:15;7.72;;;2.80;;
72920;SDS011;61064;51.654;5.476;2023-06-05T00:55:41;9.35;;;2.70;;
72920;SDS011;61064;51.654;5.476;2023-06-05T00:58:07;8.48;;;2.70;;
72920;SDS011;61064;51.654;5.476;2023-06-05T01:00:33;9.30;;;3.00;;
72920;SDS011;61064;51.654;5.476;2023-06-05T01:02:59;8.73;;;2.70;;
72920;SDS011;61064;51.654;5.476;2023-06-05T01:05:24;8.05;;;2.85;;
72920;SDS011;61064;51.654;5.476;2023-06-05T01:07:51;8.97;;;2.17;;
72920;SDS011;61064;51.654;5.476;2023-06-05T01:10:17;8.30;;;3.10;;
72920;SDS011;61064;51.654;5.476;2023-06-05T01:15:24;9.90;;;2.60;;
72920;SDS011;61064;51.654;5.476;2023-06-05T01:17:54;7.30;;;2.80;;
72920;SDS011;61064;51.654;5.476;2023-06-05T01:20:21;7.70;;;2.75;;
72920;SDS011;61064;51.654;5.476;2023-06-05T01:22:56;9.88;;;2.60;;
72920;SDS011;61064;51.654;5.476;2023-06-05T01:25:22;8.45;;;2.50;;
72920;SDS011;61064;51.654;5.476;2023-06-05T01:27:48;7.90;;;2.67;;
72920;SDS011;61064;51.654;5.476;2023-06-05T01:30:40;7.95;;;2.90;;
72920;SDS011;61064;51.654;5.476;2023-06-05T01:33:13;9.07;;;2.53;;
72920;SDS011;61064;51.654;5.476;2023-06-05T01:35:42;8.35;;;2.80;;
72920;SDS011;61064;51.654;5.476;2023-06-05T01:38:10;10.10;;;3.03;;
72920;SDS011;61064;51.654;5.476;2023-06-05T01:40:36;9.02;;;3.05;;
72920;SDS011;61064;51.654;5.476;2023-06-05T01:43:05;9.77;;;3.25;;
72920;SDS011;61064;51.654;5.476;2023-06-05T01:45:36;7.93;;;2.90;;
72920;SDS011;61064;51.654;5.476;2023-06-05T01:48:06;9.23;;;2.97;;
72920;SDS011;61064;51.654;5.476;2023-06-05T01:50:33;7.70;;;3.00;;
72920;SDS011;61064;51.654;5.476;2023-06-05T01:53:01;7.85;;;3.20;;
72920;SDS011;61064;51.654;5.476;2023-06-05T01:55:27;8.23;;;3.05;;
72920;SDS011;61064;51.654;5.476;2023-06-05T01:57:53;9.13;;;3.03;;
72920;SDS011;61064;51.654;5.476;2023-06-05T02:00:18;9.32;;;3.33;;
72920;SDS011;61064;51.654;5.476;2023-06-05T02:02:48;9.07;;;3.17;;
72920;SDS011;61064;51.654;5.476;2023-06-05T02:05:15;10.75;;;3.17;;
72920;SDS011;61064;51.654;5.476;2023-06-05T02:07:46;7.43;;;3.10;;
72920;SDS011;61064;51.654;5.476;2023-06-05T02:10:14;9.10;;;3.15;;
72920;SDS011;61064;51.654;5.476;2023-06-05T02:12:40;8.73;;;3.27;;
72920;SDS011;61064;51.654;5.476;2023-06-05T02:15:07;10.43;;;3.40;;
72920;SDS011;61064;51.654;5.476;2023-06-05T02:17:38;7.18;;;3.20;;
72920;SDS011;61064;51.654;5.476;2023-06-05T02:20:12;8.75;;;3.35;;
72920;SDS011;61064;51.654;5.476;2023-06-05T02:22:38;11.68;;;4.13;;
72920;SDS011;61064;51.654;5.476;2023-06-05T02:25:05;8.70;;;3.50;;
72920;SDS011;61064;51.654;5.476;2023-06-05T02:27:31;9.50;;;3.70;;
72920;SDS011;61064;51.654;5.476;2023-06-05T02:29:56;9.07;;;3.60;;
72920;SDS011;61064;51.654;5.476;2023-06-05T02:32:21;10.77;;;3.90;;
72920;SDS011;61064;51.654;5.476;2023-06-05T02:34:50;8.00;;;3.50;;
72920;SDS011;61064;51.654;5.476;2023-06-05T02:37:16;8.63;;;3.47;;
72920;SDS011;61064;51.654;5.476;2023-06-05T02:39:42;8.27;;;3.60;;
72920;SDS011;61064;51.654;5.476;2023-06-05T02:42:07;8.73;;;3.50;;
72920;SDS011;61064;51.654;5.476;2023-06-05T02:44:33;11.27;;;3.60;;
72920;SDS011;61064;51.654;5.476;2023-06-05T02:46:59;10.40;;;3.70;;
72920;SDS011;61064;51.654;5.476;2023-06-05T02:49:24;10.50;;;3.53;;
72920;SDS011;61064;51.654;5.476;2023-06-05T02:51:49;7.90;;;3.67;;
72920;SDS011;61064;51.654;5.476;2023-06-05T02:54:15;9.47;;;3.70;;
72920;SDS011;61064;51.654;5.476;2023-06-05T02:56:40;8.73;;;3.90;;
72920;SDS011;61064;51.654;5.476;2023-06-05T02:59:05;10.67;;;4.17;;
72920;SDS011;61064;51.654;5.476;2023-06-05T03:01:34;8.77;;;3.70;;
72920;SDS011;61064;51.654;5.476;2023-06-05T03:04:00;9.50;;;3.70;;
72920;SDS011;61064;51.654;5.476;2023-06-05T03:06:28;8.80;;;3.53;;
72920;SDS011;61064;51.654;5.476;2023-06-05T03:08:58;10.73;;;3.88;;
72920;SDS011;61064;51.654;5.476;2023-06-05T03:11:24;10.30;;;4.05;;
72920;SDS011;61064;51.654;5.476;2023-06-05T03:13:50;10.90;;;3.92;;
72920;SDS011;61064;51.654;5.476;2023-06-05T03:16:16;11.37;;;4.20;;
72920;SDS011;61064;51.654;5.476;2023-06-05T03:18:42;9.15;;;4.03;;
72920;SDS011;61064;51.654;5.476;2023-06-05T03:21:08;10.20;;;3.50;;
72920;SDS011;61064;51.654;5.476;2023-06-05T03:23:35;11.07;;;4.10;;
72920;SDS011;61064;51.654;5.476;2023-06-05T03:26:00;10.97;;;4.03;;
72920;SDS011;61064;51.654;5.476;2023-06-05T03:28:28;13.85;;;4.43;;
72920;SDS011;61064;51.654;5.476;2023-06-05T03:30:55;9.27;;;4.10;;
72920;SDS011;61064;51.654;5.476;2023-06-05T03:33:20;10.63;;;4.10;;
72920;SDS011;61064;51.654;5.476;2023-06-05T03:35:46;13.40;;;4.47;;
72920;SDS011;61064;51.654;5.476;2023-06-05T03:38:11;10.97;;;4.37;;
72920;SDS011;61064;51.654;5.476;2023-06-05T03:40:37;12.05;;;4.38;;
72920;SDS011;61064;51.654;5.476;2023-06-05T03:43:06;10.60;;;3.97;;
72920;SDS011;61064;51.654;5.476;2023-06-05T03:45:32;14.30;;;4.70;;
72920;SDS011;61064;51.654;5.476;2023-06-05T03:47:58;10.17;;;3.90;;
72920;SDS011;61064;51.654;5.476;2023-06-05T03:50:25;13.80;;;4.32;;
72920;SDS011;61064;51.654;5.476;2023-06-05T03:52:54;9.57;;;4.15;;
72920;SDS011;61064;51.654;5.476;2023-06-05T03:55:33;12.25;;;4.40;;
72920;SDS011;61064;51.654;5.476;2023-06-05T03:58:10;10.20;;;4.00;;
72920;SDS011;61064;51.654;5.476;2023-06-05T04:00:40;10.53;;;4.83;;
72920;SDS011;61064;51.654;5.476;2023-06-05T04:03:07;11.57;;;4.03;;
72920;SDS011;61064;51.654;5.476;2023-06-05T04:05:36;10.27;;;4.18;;
72920;SDS011;61064;51.654;5.476;2023-06-05T04:08:02;11.82;;;4.43;;
72920;SDS011;61064;51.654;5.476;2023-06-05T04:10:28;12.23;;;4.70;;
72920;SDS011;61064;51.654;5.476;2023-06-05T04:12:55;9.88;;;4.15;;
72920;SDS011;61064;51.654;5.476;2023-06-05T04:15:22;11.70;;;4.70;;
72920;SDS011;61064;51.654;5.476;2023-06-05T04:17:48;11.20;;;4.97;;
72920;SDS011;61064;51.654;5.476;2023-06-05T04:20:13;11.40;;;5.03;;
72920;SDS011;61064;51.654;5.476;2023-06-05T04:22:39;12.57;;;4.70;;
72920;SDS011;61064;51.654;5.476;2023-06-05T04:25:08;11.13;;;4.93;;
72920;SDS011;61064;51.654;5.476;2023-06-05T04:27:40;10.40;;;4.07;;
72920;SDS011;61064;51.654;5.476;2023-06-05T04:30:08;16.10;;;6.40;;
72920;SDS011;61064;51.654;5.476;2023-06-05T04:32:35;11.47;;;5.10;;
72920;SDS011;61064;51.654;5.476;2023-06-05T04:35:02;11.85;;;5.50;;
72920;SDS011;61064;51.654;5.476;2023-06-05T04:37:28;15.18;;;6.50;;
72920;SDS011;61064;51.654;5.476;2023-06-05T04:39:53;16.57;;;6.60;;
72920;SDS011;61064;51.654;5.476;2023-06-05T04:42:20;12.75;;;4.93;;
72920;SDS011;61064;51.654;5.476;2023-06-05T04:44:53;12.43;;;4.93;;
72920;SDS011;61064;51.654;5.476;2023-06-05T04:47:21;12.15;;;4.93;;
72920;SDS011;61064;51.654;5.476;2023-06-05T04:49:47;12.03;;;5.50;;
72920;SDS011;61064;51.654;5.476;2023-06-05T04:52:14;11.75;;;4.70;;
72920;SDS011;61064;51.654;5.476;2023-06-05T04:54:39;11.57;;;4.97;;
72920;SDS011;61064;51.654;5.476;2023-06-05T04:57:05;11.07;;;4.77;;
72920;SDS011;61064;51.654;5.476;2023-06-05T04:59:31;14.02;;;5.50;;
72920;SDS011;61064;51.654;5.476;2023-06-05T05:01:59;12.20;;;5.25;;
72920;SDS011;61064;51.654;5.476;2023-06-05T05:04:24;13.80;;;5.03;;
72920;SDS011;61064;51.654;5.476;2023-06-05T05:06:50;11.80;;;5.13;;
72920;SDS011;61064;51.654;5.476;2023-06-05T05:09:16;11.60;;;5.23;;
72920;SDS011;61064;51.654;5.476;2023-06-05T05:11:42;13.18;;;5.53;;
72920;SDS011;61064;51.654;5.476;2023-06-05T05:14:08;12.70;;;5.27;;
72920;SDS011;61064;51.654;5.476;2023-06-05T05:16:33;10.50;;;5.07;;
72920;SDS011;61064;51.654;5.476;2023-06-05T05:18:59;11.45;;;5.10;;
72920;SDS011;61064;51.654;5.476;2023-06-05T05:21:24;11.20;;;5.30;;
72920;SDS011;61064;51.654;5.476;2023-06-05T05:23:50;11.65;;;5.13;;
72920;SDS011;61064;51.654;5.476;2023-06-05T05:26:16;12.87;;;5.13;;
72920;SDS011;61064;51.654;5.476;2023-06-05T05:28:41;10.75;;;4.78;;
72920;SDS011;61064;51.654;5.476;2023-06-05T05:31:07;13.37;;;5.37;;
72920;SDS011;61064;51.654;5.476;2023-06-05T05:33:32;12.83;;;5.63;;
72920;SDS011;61064;51.654;5.476;2023-06-05T05:35:57;12.67;;;5.00;;
72920;SDS011;61064;51.654;5.476;2023-06-05T05:38:23;14.27;;;5.53;;
72920;SDS011;61064;51.654;5.476;2023-06-05T05:40:48;11.63;;;5.50;;
72920;SDS011;61064;51.654;5.476;2023-06-05T05:43:13;18.27;;;5.88;;
72920;SDS011;61064;51.654;5.476;2023-06-05T05:45:40;11.60;;;5.30;;
72920;SDS011;61064;51.654;5.476;2023-06-05T05:48:07;13.98;;;5.72;;
72920;SDS011;61064;51.654;5.476;2023-06-05T05:50:33;12.27;;;5.53;;
72920;SDS011;61064;51.654;5.476;2023-06-05T05:52:58;11.60;;;5.43;;
72920;SDS011;61064;51.654;5.476;2023-06-05T05:55:24;10.98;;;5.03;;
72920;SDS011;61064;51.654;5.476;2023-06-05T05:57:49;13.83;;;5.50;;
72920;SDS011;61064;51.654;5.476;2023-06-05T06:00:18;11.52;;;5.70;;
72920;SDS011;61064;51.654;5.476;2023-06-05T06:02:43;12.07;;;5.23;;
72920;SDS011;61064;51.654;5.476;2023-06-05T06:05:09;13.97;;;5.40;;
72920;SDS011;61064;51.654;5.476;2023-06-05T06:07:35;12.63;;;5.57;;
72920;SDS011;61064;51.654;5.476;2023-06-05T06:10:01;13.13;;;5.45;;
72920;SDS011;61064;51.654;5.476;2023-06-05T06:12:30;12.80;;;5.10;;
72920;SDS011;61064;51.654;5.476;2023-06-05T06:14:55;14.70;;;5.28;;
72920;SDS011;61064;51.654;5.476;2023-06-05T06:17:21;13.53;;;5.13;;
72920;SDS011;61064;51.654;5.476;2023-06-05T06:19:46;15.95;;;4.97;;
72920;SDS011;61064;51.654;5.476;2023-06-05T06:22:13;13.52;;;4.85;;
72920;SDS011;61064;51.654;5.476;2023-06-05T06:24:42;11.40;;;5.25;;
72920;SDS011;61064;51.654;5.476;2023-06-05T06:27:10;12.40;;;5.60;;
72920;SDS011;61064;51.654;5.476;2023-06-05T06:29:45;12.68;;;5.13;;
72920;SDS011;61064;51.654;5.476;2023-06-05T06:32:12;11.00;;;4.37;;
72920;SDS011;61064;51.654;5.476;2023-06-05T06:34:38;13.25;;;4.65;;
72920;SDS011;61064;51.654;5.476;2023-06-05T06:37:03;9.83;;;4.63;;
72920;SDS011;61064;51.654;5.476;2023-06-05T06:39:29;10.97;;;4.93;;
72920;SDS011;61064;51.654;5.476;2023-06-05T06:41:54;10.90;;;4.30;;
72920;SDS011;61064;51.654;5.476;2023-06-05T06:44:21;15.00;;;4.73;;
72920;SDS011;61064;51.654;5.476;2023-06-05T06:46:47;13.80;;;4.70;;
72920;SDS011;61064;51.654;5.476;2023-06-05T06:49:12;11.38;;;4.70;;
72920;SDS011;61064;51.654;5.476;2023-06-05T06:51:38;10.50;;;4.40;;
72920;SDS011;61064;51.654;5.476;2023-06-05T06:54:03;10.83;;;4.67;;
72920;SDS011;61064;51.654;5.476;2023-06-05T06:56:28;11.10;;;4.80;;
72920;SDS011;61064;51.654;5.476;2023-06-05T06:58:54;11.87;;;4.80;;
72920;SDS011;61064;51.654;5.476;2023-06-05T07:01:20;10.00;;;4.15;;
72920;SDS011;61064;51.654;5.476;2023-06-05T07:03:46;11.37;;;4.20;;
72920;SDS011;61064;51.654;5.476;2023-06-05T07:06:11;10.47;;;4.10;;
72920;SDS011;61064;51.654;5.476;2023-06-05T07:08:37;10.20;;;4.20;;
72920;SDS011;61064;51.654;5.476;2023-06-05T07:11:03;9.60;;;4.40;;
72920;SDS011;61064;51.654;5.476;2023-06-05T07:13:28;9.73;;;3.93;;
72920;SDS011;61064;51.654;5.476;2023-06-05T07:15:54;9.40;;;3.78;;
72920;SDS011;61064;51.654;5.476;2023-06-05T07:18:20;11.70;;;4.60;;
72920;SDS011;61064;51.654;5.476;2023-06-05T07:20:45;10.00;;;4.17;;
72920;SDS011;61064;51.654;5.476;2023-06-05T07:23:12;10.60;;;4.00;;
72920;SDS011;61064;51.654;5.476;2023-06-05T07:25:39;12.05;;;3.97;;
72920;SDS011;61064;51.654;5.476;2023-06-05T07:28:08;10.07;;;4.33;;
72920;SDS011;61064;51.654;5.476;2023-06-05T07:30:36;9.73;;;4.10;;
72920;SDS011;61064;51.654;5.476;2023-06-05T07:33:02;11.50;;;4.25;;
72920;SDS011;61064;51.654;5.476;2023-06-05T07:35:28;8.73;;;4.10;;
72920;SDS011;61064;51.654;5.476;2023-06-05T07:37:53;9.50;;;4.10;;
72920;SDS011;61064;51.654;5.476;2023-06-05T07:40:19;9.67;;;3.87;;
72920;SDS011;61064;51.654;5.476;2023-06-05T07:42:45;11.32;;;4.40;;
72920;SDS011;61064;51.654;5.476;2023-06-05T07:45:11;12.00;;;4.20;;
72920;SDS011;61064;51.654;5.476;2023-06-05T07:47:36;12.13;;;3.93;;
72920;SDS011;61064;51.654;5.476;2023-06-05T07:50:02;9.23;;;4.30;;
72920;SDS011;61064;51.654;5.476;2023-06-05T07:52:30;10.63;;;4.28;;
72920;SDS011;61064;51.654;5.476;2023-06-05T07:54:56;8.73;;;4.30;;
72920;SDS011;61064;51.654;5.476;2023-06-05T07:57:22;11.27;;;4.18;;
72920;SDS011;61064;51.654;5.476;2023-06-05T07:59:50;10.23;;;4.07;;
72920;SDS011;61064;51.654;5.476;2023-06-05T08:02:19;11.23;;;4.32;;
72920;SDS011;61064;51.654;5.476;2023-06-05T08:04:45;9.30;;;4.20;;
72920;SDS011;61064;51.654;5.476;2023-06-05T08:07:14;11.70;;;4.28;;
72920;SDS011;61064;51.654;5.476;2023-06-05T08:09:39;11.90;;;4.28;;
72920;SDS011;61064;51.654;5.476;2023-06-05T08:12:06;11.15;;;3.80;;
72920;SDS011;61064;51.654;5.476;2023-06-05T08:14:35;8.57;;;3.95;;
72920;SDS011;61064;51.654;5.476;2023-06-05T08:17:01;8.77;;;3.60;;
72920;SDS011;61064;51.654;5.476;2023-06-05T08:19:27;12.18;;;4.20;;
72920;SDS011;61064;51.654;5.476;2023-06-05T08:21:52;12.87;;;4.00;;
72920;SDS011;61064;51.654;5.476;2023-06-05T08:24:24;9.60;;;4.20;;
72920;SDS011;61064;51.654;5.476;2023-06-05T08:26:52;11.90;;;4.07;;
72920;SDS011;61064;51.654;5.476;2023-06-05T08:29:17;10.60;;;4.07;;
72920;SDS011;61064;51.654;5.476;2023-06-05T08:31:42;11.43;;;4.33;;
72920;SDS011;61064;51.654;5.476;2023-06-05T08:34:08;9.83;;;4.00;;
72920;SDS011;61064;51.654;5.476;2023-06-05T08:36:33;9.63;;;4.03;;
72920;SDS011;61064;51.654;5.476;2023-06-05T08:39:00;9.27;;;3.80;;
72920;SDS011;61064;51.654;5.476;2023-06-05T08:41:25;9.17;;;3.70;;
72920;SDS011;61064;51.654;5.476;2023-06-05T08:43:51;9.43;;;3.70;;
72920;SDS011;61064;51.654;5.476;2023-06-05T08:46:17;9.18;;;3.92;;
72920;SDS011;61064;51.654;5.476;2023-06-05T08:48:43;8.97;;;3.70;;
72920;SDS011;61064;51.654;5.476;2023-06-05T08:51:13;9.60;;;4.20;;
72920;SDS011;61064;51.654;5.476;2023-06-05T08:54:02;11.13;;;3.63;;
72920;SDS011;61064;51.654;5.476;2023-06-05T08:56:37;9.48;;;3.60;;
72920;SDS011;61064;51.654;5.476;2023-06-05T08:59:04;11.27;;;3.78;;
72920;SDS011;61064;51.654;5.476;2023-06-05T09:01:30;10.17;;;3.67;;
72920;SDS011;61064;51.654;5.476;2023-06-05T09:03:57;11.65;;;3.83;;
72920;SDS011;61064;51.654;5.476;2023-06-05T09:06:23;12.60;;;3.80;;
72920;SDS011;61064;51.654;5.476;2023-06-05T09:08:48;10.93;;;4.40;;
72920;SDS011;61064;51.654;5.476;2023-06-05T09:13:56;10.85;;;4.22;;
72920;SDS011;61064;51.654;5.476;2023-06-05T09:16:36;9.53;;;3.70;;
72920;SDS011;61064;51.654;5.476;2023-06-05T09:19:02;11.20;;;3.45;;
72920;SDS011;61064;51.654;5.476;2023-06-05T09:21:29;9.45;;;3.42;;
72920;SDS011;61064;51.654;5.476;2023-06-05T09:26:51;10.85;;;3.70;;
72920;SDS011;61064;51.654;5.476;2023-06-05T09:29:20;7.47;;;3.37;;
72920;SDS011;61064;51.654;5.476;2023-06-05T09:31:51;11.68;;;4.18;;
72920;SDS011;61064;51.654;5.476;2023-06-05T09:34:22;8.77;;;3.10;;
72920;SDS011;61064;51.654;5.476;2023-06-05T09:36:57;11.45;;;3.78;;
72920;SDS011;61064;51.654;5.476;2023-06-05T09:39:23;9.43;;;3.92;;
72920;SDS011;61064;51.654;5.476;2023-06-05T09:41:53;10.03;;;3.40;;
72920;SDS011;61064;51.654;5.476;2023-06-05T09:44:20;9.48;;;3.42;;
72920;SDS011;61064;51.654;5.476;2023-06-05T09:49:21;9.98;;;3.70;;
72920;SDS011;61064;51.654;5.476;2023-06-05T09:51:48;9.52;;;3.30;;
72920;SDS011;61064;51.654;5.476;2023-06-05T09:54:14;10.40;;;3.30;;
72920;SDS011;61064;51.654;5.476;2023-06-05T09:56:40;11.23;;;3.37;;
72920;SDS011;61064;51.654;5.476;2023-06-05T09:59:08;10.77;;;3.43;;
72920;SDS011;61064;51.654;5.476;2023-06-05T10:01:38;14.82;;;3.80;;
72920;SDS011;61064;51.654;5.476;2023-06-05T10:04:06;12.05;;;3.38;;
72920;SDS011;61064;51.654;5.476;2023-06-05T10:06:38;10.30;;;3.38;;
72920;SDS011;61064;51.654;5.476;2023-06-05T10:09:06;8.88;;;2.92;;
72920;SDS011;61064;51.654;5.476;2023-06-05T10:11:32;8.93;;;3.20;;
72920;SDS011;61064;51.654;5.476;2023-06-05T10:13:58;8.80;;;3.13;;
72920;SDS011;61064;51.654;5.476;2023-06-05T10:16:25;9.13;;;3.40;;
72920;SDS011;61064;51.654;5.476;2023-06-05T10:18:54;8.57;;;3.60;;
72920;SDS011;61064;51.654;5.476;2023-06-05T10:21:21;9.60;;;3.33;;
72920;SDS011;61064;51.654;5.476;2023-06-05T10:32:00;8.60;;;3.38;;
72920;SDS011;61064;51.654;5.476;2023-06-05T10:39:55;11.75;;;3.10;;
72920;SDS011;61064;51.654;5.476;2023-06-05T10:42:24;8.85;;;3.00;;
72920;SDS011;61064;51.654;5.476;2023-06-05T10:44:50;8.90;;;3.33;;
72920;SDS011;61064;51.654;5.476;2023-06-05T10:52:48;11.15;;;3.05;;
72920;SDS011;61064;51.654;5.476;2023-06-05T10:55:15;10.15;;;3.53;;
72920;SDS011;61064;51.654;5.476;2023-06-05T11:00:29;9.70;;;3.25;;
72920;SDS011;61064;51.654;5.476;2023-06-05T11:02:57;8.25;;;3.33;;
72920;SDS011;61064;51.654;5.476;2023-06-05T11:05:23;9.55;;;3.33;;
72920;SDS011;61064;51.654;5.476;2023-06-05T11:08:10;10.50;;;3.50;;
72920;SDS011;61064;51.654;5.476;2023-06-05T11:11:01;8.98;;;3.40;;
72920;SDS011;61064;51.654;5.476;2023-06-05T11:24:27;8.27;;;2.92;;
72920;SDS011;61064;51.654;5.476;2023-06-05T11:26:53;10.87;;;3.37;;
72920;SDS011;61064;51.654;5.476;2023-06-05T11:29:18;10.35;;;3.22;;
72920;SDS011;61064;51.654;5.476;2023-06-05T11:31:45;10.03;;;3.40;;
72920;SDS011;61064;51.654;5.476;2023-06-05T11:34:11;9.88;;;3.00;;
72920;SDS011;61064;51.654;5.476;2023-06-05T11:36:38;9.88;;;3.28;;
72920;SDS011;61064;51.654;5.476;2023-06-05T11:39:03;7.77;;;2.90;;
72920;SDS011;61064;51.654;5.476;2023-06-05T11:41:29;7.60;;;3.13;;
72920;SDS011;61064;51.654;5.476;2023-06-05T11:43:54;8.67;;;2.60;;
72920;SDS011;61064;51.654;5.476;2023-06-05T11:46:35;8.45;;;2.97;;
72920;SDS011;61064;51.654;5.476;2023-06-05T11:49:04;7.13;;;2.85;;
72920;SDS011;61064;51.654;5.476;2023-06-05T11:51:35;8.40;;;2.70;;
72920;SDS011;61064;51.654;5.476;2023-06-05T11:54:02;7.72;;;3.38;;
72920;SDS011;61064;51.654;5.476;2023-06-05T11:56:27;7.30;;;2.80;;
72920;SDS011;61064;51.654;5.476;2023-06-05T11:58:54;8.85;;;2.50;;
72920;SDS011;61064;51.654;5.476;2023-06-05T12:01:20;8.10;;;2.83;;
72920;SDS011;61064;51.654;5.476;2023-06-05T12:04:03;9.07;;;2.95;;
72920;SDS011;61064;51.654;5.476;2023-06-05T12:06:30;8.05;;;3.28;;
72920;SDS011;61064;51.654;5.476;2023-06-05T12:09:06;7.53;;;2.60;;
72920;SDS011;61064;51.654;5.476;2023-06-05T12:11:35;8.15;;;2.60;;
72920;SDS011;61064;51.654;5.476;2023-06-05T12:14:02;8.17;;;2.70;;
72920;SDS011;61064;51.654;5.476;2023-06-05T12:16:35;8.27;;;3.00;;
72920;SDS011;61064;51.654;5.476;2023-06-05T12:19:02;13.40;;;3.13;;
72920;SDS011;61064;51.654;5.476;2023-06-05T12:21:36;7.90;;;2.90;;
72920;SDS011;61064;51.654;5.476;2023-06-05T12:24:02;6.47;;;2.40;;
72920;SDS011;61064;51.654;5.476;2023-06-05T12:26:29;7.13;;;2.83;;
72920;SDS011;61064;51.654;5.476;2023-06-05T12:29:12;9.17;;;2.60;;
72920;SDS011;61064;51.654;5.476;2023-06-05T12:31:37;8.70;;;2.73;;
72920;SDS011;61064;51.654;5.476;2023-06-05T12:34:04;8.88;;;2.80;;
72920;SDS011;61064;51.654;5.476;2023-06-05T12:36:31;8.50;;;2.78;;
72920;SDS011;61064;51.654;5.476;2023-06-05T12:39:02;8.90;;;2.58;;
72920;SDS011;61064;51.654;5.476;2023-06-05T12:41:35;7.83;;;2.20;;
72920;SDS011;61064;51.654;5.476;2023-06-05T12:44:04;10.63;;;2.53;;
72920;SDS011;61064;51.654;5.476;2023-06-05T12:46:32;7.47;;;2.87;;
72920;SDS011;61064;51.654;5.476;2023-06-05T12:49:02;9.07;;;2.80;;
72920;SDS011;61064;51.654;5.476;2023-06-05T12:51:30;9.52;;;2.88;;
72920;SDS011;61064;51.654;5.476;2023-06-05T12:53:55;6.87;;;2.90;;
72920;SDS011;61064;51.654;5.476;2023-06-05T12:56:22;6.05;;;2.53;;
72920;SDS011;61064;51.654;5.476;2023-06-05T12:58:55;8.50;;;2.10;;
72920;SDS011;61064;51.654;5.476;2023-06-05T13:01:22;6.65;;;2.38;;
72920;SDS011;61064;51.654;5.476;2023-06-05T13:03:49;6.93;;;2.70;;
72920;SDS011;61064;51.654;5.476;2023-06-05T13:06:15;10.93;;;2.70;;
72920;SDS011;61064;51.654;5.476;2023-06-05T13:08:40;7.23;;;2.90;;
72920;SDS011;61064;51.654;5.476;2023-06-05T13:11:05;8.33;;;2.50;;
72920;SDS011;61064;51.654;5.476;2023-06-05T13:13:31;6.13;;;2.30;;
72920;SDS011;61064;51.654;5.476;2023-06-05T13:15:58;9.48;;;2.08;;
72920;SDS011;61064;51.654;5.476;2023-06-05T13:18:23;5.40;;;1.90;;
72920;SDS011;61064;51.654;5.476;2023-06-05T13:20:49;7.95;;;3.20;;
72920;SDS011;61064;51.654;5.476;2023-06-05T13:23:14;7.50;;;3.30;;
72920;SDS011;61064;51.654;5.476;2023-06-05T13:25:39;9.57;;;2.77;;
72920;SDS011;61064;51.654;5.476;2023-06-05T13:28:05;9.10;;;2.90;;
72920;SDS011;61064;51.654;5.476;2023-06-05T13:30:31;8.25;;;2.78;;
72920;SDS011;61064;51.654;5.476;2023-06-05T13:32:57;7.03;;;2.33;;
72920;SDS011;61064;51.654;5.476;2023-06-05T13:35:23;6.43;;;2.50;;
72920;SDS011;61064;51.654;5.476;2023-06-05T13:37:48;6.73;;;2.80;;
72920;SDS011;61064;51.654;5.476;2023-06-05T13:40:15;7.43;;;2.58;;
72920;SDS011;61064;51.654;5.476;2023-06-05T13:42:41;6.87;;;2.50;;
72920;SDS011;61064;51.654;5.476;2023-06-05T13:45:06;6.50;;;2.50;;
72920;SDS011;61064;51.654;5.476;2023-06-05T13:47:32;8.00;;;2.80;;
72920;SDS011;61064;51.654;5.476;2023-06-05T13:49:57;8.40;;;2.80;;
72920;SDS011;61064;51.654;5.476;2023-06-05T13:52:23;8.77;;;2.50;;
72920;SDS011;61064;51.654;5.476;2023-06-05T13:54:48;7.63;;;3.00;;
72920;SDS011;61064;51.654;5.476;2023-06-05T13:57:14;6.70;;;3.40;;
72920;SDS011;61064;51.654;5.476;2023-06-05T13:59:40;7.65;;;3.30;;
72920;SDS011;61064;51.654;5.476;2023-06-05T14:02:06;8.53;;;3.50;;
72920;SDS011;61064;51.654;5.476;2023-06-05T14:04:31;9.53;;;3.80;;
72920;SDS011;61064;51.654;5.476;2023-06-05T14:06:56;7.88;;;3.30;;
72920;SDS011;61064;51.654;5.476;2023-06-05T14:09:23;7.67;;;2.93;;
72920;SDS011;61064;51.654;5.476;2023-06-05T14:11:48;7.63;;;4.00;;
72920;SDS011;61064;51.654;5.476;2023-06-05T14:14:14;8.27;;;3.60;;
72920;SDS011;61064;51.654;5.476;2023-06-05T14:16:39;7.63;;;2.97;;
72920;SDS011;61064;51.654;5.476;2023-06-05T14:19:04;8.47;;;3.47;;
72920;SDS011;61064;51.654;5.476;2023-06-05T14:21:30;7.87;;;3.10;;
72920;SDS011;61064;51.654;5.476;2023-06-05T14:23:55;8.87;;;3.30;;
72920;SDS011;61064;51.654;5.476;2023-06-05T14:26:21;10.80;;;3.40;;
72920;SDS011;61064;51.654;5.476;2023-06-05T14:28:47;9.73;;;2.97;;
72920;SDS011;61064;51.654;5.476;2023-06-05T14:31:12;8.15;;;3.08;;
72920;SDS011;61064;51.654;5.476;2023-06-05T14:33:38;7.00;;;2.90;;
72920;SDS011;61064;51.654;5.476;2023-06-05T14:36:03;7.50;;;2.80;;
72920;SDS011;61064;51.654;5.476;2023-06-05T14:38:30;7.20;;;3.37;;
72920;SDS011;61064;51.654;5.476;2023-06-05T14:40:55;7.45;;;2.75;;
72920;SDS011;61064;51.654;5.476;2023-06-05T14:43:22;7.13;;;2.70;;
72920;SDS011;61064;51.654;5.476;2023-06-05T14:45:48;7.53;;;2.70;;
72920;SDS011;61064;51.654;5.476;2023-06-05T14:48:13;8.03;;;3.00;;
72920;SDS011;61064;51.654;5.476;2023-06-05T14:50:38;8.10;;;2.80;;
72920;SDS011;61064;51.654;5.476;2023-06-05T14:53:04;8.03;;;3.00;;
72920;SDS011;61064;51.654;5.476;2023-06-05T14:55:30;8.15;;;2.83;;
72920;SDS011;61064;51.654;5.476;2023-06-05T14:57:55;10.50;;;2.83;;
72920;SDS011;61064;51.654;5.476;2023-06-05T15:00:21;9.97;;;3.20;;
72920;SDS011;61064;51.654;5.476;2023-06-05T15:02:46;8.38;;;2.85;;
72920;SDS011;61064;51.654;5.476;2023-06-05T15:05:11;11.00;;;2.77;;
72920;SDS011;61064;51.654;5.476;2023-06-05T15:07:38;12.57;;;2.70;;
72920;SDS011;61064;51.654;5.476;2023-06-05T15:10:06;7.93;;;2.73;;
72920;SDS011;61064;51.654;5.476;2023-06-05T15:12:33;9.02;;;3.08;;
72920;SDS011;61064;51.654;5.476;2023-06-05T15:14:59;8.70;;;2.78;;
72920;SDS011;61064;51.654;5.476;2023-06-05T15:17:27;8.52;;;2.92;;
72920;SDS011;61064;51.654;5.476;2023-06-05T15:19:53;6.60;;;2.47;;
72920;SDS011;61064;51.654;5.476;2023-06-05T15:22:18;7.43;;;2.70;;
72920;SDS011;61064;51.654;5.476;2023-06-05T15:24:44;8.73;;;2.70;;
72920;SDS011;61064;51.654;5.476;2023-06-05T15:27:11;8.30;;;2.53;;